Time;durP1;ratioP1;P1;durP2;ratioP2;P2;SDS_P1;SDS_P2;PMS_P1;PMS_P2;Temp;Humidity;BMP_temperature;BMP_pressure;BME280_temperature;BME280_humidity;BME280_pressure;Samples;Min_cycle;Max_cycle;Signal;HPM_P1;HPM_P2
2023/05/16 00:01:49;;;;;;;1999.90;999.90;;;25.50;95.80;;;;;;5083598;28;20040;-69
2023/05/16 00:04:16;;;;;;;1999.90;999.90;;;25.50;95.90;;;;;;5089101;28;20090;-69
2023/05/16 00:06:44;;;;;;;1999.90;999.90;;;25.50;96.50;;;;;;5082902;28;20035;-69
2023/05/16 00:09:11;;;;;;;1999.90;999.90;;;26.00;95.70;;;;;;5086164;28;20046;-68
2023/05/16 00:11:38;;;;;;;1999.90;999.90;;;26.50;94.50;;;;;;5080715;28;20028;-69
2023/05/16 00:14:06;;;;;;;1999.90;999.90;;;26.60;93.90;;;;;;5083829;28;20057;-68
2023/05/16 00:16:35;;;;;;;1999.90;999.90;;;26.40;94.80;;;;;;5083614;28;20036;-69
2023/05/16 00:19:03;;;;;;;1999.90;999.90;;;26.30;94.90;;;;;;5067198;28;20637;-70
2023/05/16 00:21:30;;;;;;;1999.90;999.90;;;26.60;95.40;;;;;;5071869;28;20031;-68
2023/05/16 00:23:58;;;;;;;1999.90;999.90;;;26.90;93.80;;;;;;5085188;28;20024;-69
2023/05/16 00:26:25;;;;;;;1999.90;999.90;;;27.20;93.90;;;;;;5081183;28;20070;-68
2023/05/16 00:28:52;;;;;;;1999.90;999.90;;;27.20;93.50;;;;;;5087568;28;20036;-68
2023/05/16 00:31:21;;;;;;;1999.90;999.90;;;27.30;93.90;;;;;;5080628;28;20060;-68
2023/05/16 00:33:48;;;;;;;1999.90;999.90;;;27.60;94.20;;;;;;5059391;28;20725;-68
2023/05/16 00:36:15;;;;;;;1999.90;999.90;;;28.00;93.10;;;;;;5062847;28;20428;-68
2023/05/16 00:38:43;;;;;;;1999.90;999.90;;;28.30;92.40;;;;;;5081280;28;20028;-68
2023/05/16 00:41:10;;;;;;;1999.90;999.90;;;28.20;92.00;;;;;;5079553;28;20032;-70
2023/05/16 00:43:39;;;;;;;1999.90;999.90;;;27.60;92.20;;;;;;5082151;28;20036;-71
2023/05/16 00:46:06;;;;;;;1999.90;999.90;;;27.20;92.90;;;;;;5064661;28;20052;-70
2023/05/16 00:48:34;;;;;;;1999.90;999.90;;;27.10;93.60;;;;;;5084952;28;20016;-69
2023/05/16 00:51:01;;;;;;;1999.90;999.90;;;27.20;93.90;;;;;;5074113;28;20390;-70
2023/05/16 00:53:29;;;;;;;1999.90;999.90;;;27.70;92.50;;;;;;5090143;28;20413;-70
2023/05/16 00:55:57;;;;;;;1999.90;999.90;;;28.00;92.70;;;;;;5075611;28;20487;-70
2023/05/16 00:58:25;;;;;;;1999.90;999.90;;;28.30;92.40;;;;;;5084987;28;20036;-69
2023/05/16 01:00:52;;;;;;;1999.90;999.90;;;28.00;93.10;;;;;;5077035;28;20048;-68
2023/05/16 01:03:19;;;;;;;1999.90;999.90;;;28.40;92.30;;;;;;5082443;28;20387;-68
2023/05/16 01:05:48;;;;;;;1999.90;999.90;;;28.60;91.50;;;;;;5075260;28;20044;-68
2023/05/16 01:08:15;;;;;;;1999.90;999.90;;;28.60;92.00;;;;;;5080056;28;20063;-68
2023/05/16 01:11:07;;;;;;;1999.90;999.90;;;28.90;92.20;;;;;;5089084;28;20165;-68
2023/05/16 01:13:41;;;;;;;1999.90;999.90;;;29.20;91.40;;;;;;5072717;28;20642;-69
2023/05/16 01:16:21;;;;;;;1999.90;999.90;;;29.10;91.00;;;;;;5078301;28;20027;-68
2023/05/16 01:19:21;;;;;;;1999.90;999.90;;;29.40;90.70;;;;;;5091222;28;20032;-68
2023/05/16 01:21:56;;;;;;;1999.90;999.90;;;29.20;90.70;;;;;;5083782;28;20074;-68
2023/05/16 01:25:00;;;;;;;1999.90;999.90;;;28.80;91.00;;;;;;5084505;28;20031;-70
2023/05/16 01:27:29;;;;;;;1999.90;999.90;;;28.80;91.80;;;;;;5036099;28;20371;-70
2023/05/16 01:29:56;;;;;;;1999.90;999.90;;;29.00;90.80;;;;;;5064018;28;20036;-69
2023/05/16 01:32:24;;;;;;;1999.90;999.90;;;29.40;90.90;;;;;;5073143;28;20055;-69
2023/05/16 01:34:52;;;;;;;1999.90;999.90;;;29.50;89.50;;;;;;5077273;28;20032;-70
2023/05/16 01:37:35;;;;;;;1999.90;999.90;;;29.80;90.00;;;;;;5081498;28;20031;-69
2023/05/16 01:40:15;;;;;;;1999.90;999.90;;;30.10;89.20;;;;;;5075457;28;20024;-70
2023/05/16 01:42:47;;;;;;;1999.90;999.90;;;30.20;88.20;;;;;;5076883;28;20028;-70
2023/05/16 01:45:35;;;;;;;1999.90;999.90;;;30.40;89.90;;;;;;5076489;28;20090;-70
2023/05/16 01:48:12;;;;;;;1999.90;999.90;;;30.60;87.80;;;;;;5077974;28;20045;-70
2023/05/16 01:50:45;;;;;;;1999.90;999.90;;;30.80;87.00;;;;;;5077968;28;20132;-71
2023/05/16 01:53:18;;;;;;;1999.90;999.90;;;31.00;85.50;;;;;;5073873;28;20092;-70
2023/05/16 01:55:56;;;;;;;1999.90;999.90;;;31.10;85.70;;;;;;5078909;28;20121;-69
2023/05/16 01:58:29;;;;;;;1999.90;999.90;;;31.10;84.20;;;;;;5082290;28;20020;-70
2023/05/16 02:01:06;;;;;;;1999.90;999.90;;;31.20;83.70;;;;;;5076534;28;20072;-69
2023/05/16 02:03:34;;;;;;;1999.90;999.90;;;31.40;81.50;;;;;;5085614;28;20093;-70
2023/05/16 02:06:01;;;;;;;1999.90;999.90;;;31.40;80.60;;;;;;5058976;28;20472;-69
2023/05/16 02:08:29;;;;;;;1999.90;999.90;;;31.50;78.90;;;;;;5074810;28;20453;-69
2023/05/16 02:10:57;;;;;;;1999.90;999.90;;;31.50;75.30;;;;;;5091800;28;20031;-69
2023/05/16 02:13:24;;;;;;;1999.90;999.90;;;31.30;75.00;;;;;;5099092;28;20106;-70
2023/05/16 02:15:51;;;;;;;1999.90;999.90;;;31.10;72.80;;;;;;5084814;28;20125;-69
2023/05/16 02:18:19;;;;;;;1999.90;999.90;;;30.80;72.80;;;;;;5088226;28;20049;-70
2023/05/16 02:20:46;;;;;;;1999.90;999.90;;;30.50;72.70;;;;;;5088798;28;20512;-70
2023/05/16 02:23:14;;;;;;;1999.90;999.90;;;30.30;73.20;;;;;;5091213;28;20055;-69
2023/05/16 02:25:41;;;;;;;1999.90;999.90;;;30.10;72.90;;;;;;5083966;28;20490;-69
2023/05/16 02:28:09;;;;;;;1999.90;999.90;;;29.80;72.20;;;;;;5091604;28;20032;-71
2023/05/16 02:30:36;;;;;;;1999.90;999.90;;;29.40;73.50;;;;;;5084552;28;20111;-69
2023/05/16 02:33:04;;;;;;;1999.90;999.90;;;29.30;74.30;;;;;;5091641;28;20035;-71
2023/05/16 02:35:32;;;;;;;1999.90;999.90;;;29.30;74.20;;;;;;5084278;28;20027;-70
2023/05/16 02:37:59;;;;;;;1999.90;999.90;;;29.10;73.80;;;;;;5075485;28;20473;-70
2023/05/16 02:40:27;;;;;;;1999.90;999.90;;;28.80;73.50;;;;;;5091868;28;20101;-70
2023/05/16 02:42:54;;;;;;;1999.90;999.90;;;28.60;73.80;;;;;;5088124;28;20140;-69
2023/05/16 02:45:22;;;;;;;1999.90;999.90;;;28.30;75.10;;;;;;5091490;28;20037;-69
2023/05/16 02:47:49;;;;;;;1999.90;999.90;;;28.30;75.90;;;;;;5089323;28;20020;-70
2023/05/16 02:50:16;;;;;;;1999.90;999.90;;;28.30;75.60;;;;;;5093942;28;20029;-70
2023/05/16 02:52:44;;;;;;;1999.90;999.90;;;28.10;75.60;;;;;;5095320;28;20024;-70
2023/05/16 02:55:11;;;;;;;1999.90;999.90;;;28.10;76.70;;;;;;5086667;28;20046;-69
2023/05/16 02:57:39;;;;;;;1999.90;999.90;;;28.00;76.40;;;;;;5088194;28;20069;-68
2023/05/16 03:00:08;;;;;;;1999.90;999.90;;;28.00;77.10;;;;;;5091891;28;20078;-69
2023/05/16 03:02:36;;;;;;;1999.90;999.90;;;27.90;76.30;;;;;;5069529;28;20024;-71
2023/05/16 03:05:04;;;;;;;1999.90;999.90;;;27.80;76.70;;;;;;5067928;28;20038;-69
2023/05/16 03:07:31;;;;;;;1999.90;999.90;;;27.80;78.90;;;;;;5078499;28;20740;-68
2023/05/16 03:09:58;;;;;;;1999.90;999.90;;;27.80;78.00;;;;;;5077196;28;20028;-69
2023/05/16 03:12:26;;;;;;;1999.90;999.90;;;27.70;76.20;;;;;;5078428;28;20081;-68
2023/05/16 03:14:53;;;;;;;1999.90;999.90;;;27.50;76.30;;;;;;5078631;28;20722;-68
2023/05/16 03:17:20;;;;;;;1999.90;999.90;;;27.20;77.30;;;;;;5083390;28;20035;-67
2023/05/16 03:19:48;;;;;;;1999.90;999.90;;;26.90;78.40;;;;;;5084317;28;20020;-69
2023/05/16 03:22:15;;;;;;;1999.90;999.90;;;26.70;79.60;;;;;;5087731;28;20024;-68
2023/05/16 03:24:43;;;;;;;1999.90;999.90;;;26.50;79.40;;;;;;5086520;28;20489;-69
2023/05/16 03:27:10;;;;;;;1999.90;999.90;;;26.20;80.20;;;;;;5088666;28;20028;-70
2023/05/16 03:29:38;;;;;;;1999.90;999.90;;;25.90;79.80;;;;;;5079177;28;20020;-68
2023/05/16 03:32:06;;;;;;;1999.90;999.90;;;25.60;81.20;;;;;;5080429;28;20032;-70
2023/05/16 03:34:33;;;;;;;1999.90;999.90;;;25.40;81.60;;;;;;5086818;28;20118;-70
2023/05/16 03:37:01;;;;;;;1999.90;999.90;;;25.20;81.40;;;;;;5084987;28;20080;-69
2023/05/16 03:39:28;;;;;;;1999.90;999.90;;;24.90;81.20;;;;;;5057561;28;20127;-70
2023/05/16 03:41:56;;;;;;;1999.90;999.90;;;24.70;81.90;;;;;;5071839;28;20047;-70
2023/05/16 03:44:23;;;;;;;1999.90;999.90;;;24.40;82.60;;;;;;5084967;28;20371;-70
2023/05/16 03:46:51;;;;;;;1999.90;999.90;;;24.10;83.90;;;;;;5086652;28;20074;-69
2023/05/16 03:49:20;;;;;;;1999.90;999.90;;;23.80;84.20;;;;;;5090568;28;20039;-69
2023/05/16 03:51:48;;;;;;;1999.90;999.90;;;23.70;84.80;;;;;;5090578;28;20039;-69
2023/05/16 03:54:16;;;;;;;1999.90;999.90;;;23.60;85.20;;;;;;5086106;28;20486;-69
2023/05/16 03:56:43;;;;;;;1999.90;999.90;;;23.50;84.20;;;;;;5067809;28;20021;-70
2023/05/16 03:59:11;;;;;;;1999.90;999.90;;;23.50;83.80;;;;;;5086935;28;20485;-69
2023/05/16 04:01:39;;;;;;;1999.90;999.90;;;23.40;84.80;;;;;;5090810;28;20110;-69
2023/05/16 04:04:07;;;;;;;1999.90;999.90;;;23.40;85.20;;;;;;5081482;28;20158;-69
2023/05/16 04:06:35;;;;;;;1999.90;999.90;;;23.30;83.90;;;;;;5070403;28;20040;-70
2023/05/16 04:09:02;;;;;;;1999.90;999.90;;;23.10;83.60;;;;;;5092073;28;20047;-70
2023/05/16 04:11:29;;;;;;;1999.90;999.90;;;22.90;84.10;;;;;;5083525;28;20036;-68
2023/05/16 04:13:58;;;;;;;1999.90;999.90;;;22.70;85.10;;;;;;5097362;28;20118;-69
2023/05/16 04:16:25;;;;;;;1999.90;999.90;;;22.50;86.00;;;;;;5085792;28;20036;-71
2023/05/16 04:18:53;;;;;;;1999.90;999.90;;;22.40;86.30;;;;;;5086900;28;20036;-68
2023/05/16 04:21:20;;;;;;;1999.90;999.90;;;22.20;86.10;;;;;;5080750;28;20030;-68
2023/05/16 04:23:48;;;;;;;1999.90;999.90;;;22.10;86.20;;;;;;5082584;28;20146;-69
2023/05/16 04:26:16;;;;;;;1999.90;999.90;;;22.10;86.40;;;;;;5088350;28;20413;-69
2023/05/16 04:28:43;;;;;;;1999.90;999.90;;;22.10;86.30;;;;;;5084482;28;20028;-70
2023/05/16 04:31:12;;;;;;;1999.90;999.90;;;22.00;85.90;;;;;;5089070;28;20037;-70
2023/05/16 04:33:40;;;;;;;1999.90;999.90;;;22.00;85.30;;;;;;5086298;28;20032;-70
2023/05/16 04:36:07;;;;;;;1999.90;999.90;;;21.90;86.30;;;;;;5087110;28;20047;-69
2023/05/16 04:38:35;;;;;;;1999.90;999.90;;;21.80;86.30;;;;;;5089858;28;20024;-68
2023/05/16 04:41:03;;;;;;;1999.90;999.90;;;21.70;86.80;;;;;;5086987;28;20031;-69
2023/05/16 04:43:30;;;;;;;1999.90;999.90;;;21.60;87.10;;;;;;5087596;28;20024;-69
2023/05/16 04:45:58;;;;;;;1999.90;999.90;;;21.50;87.60;;;;;;5086341;28;20067;-69
2023/05/16 04:48:25;;;;;;;1999.90;999.90;;;21.40;87.60;;;;;;5093578;28;20034;-69
2023/05/16 04:50:54;;;;;;;1999.90;999.90;;;21.40;87.10;;;;;;5084183;28;20035;-70
2023/05/16 04:53:21;;;;;;;1999.90;999.90;;;21.30;87.40;;;;;;5089944;28;20032;-70
2023/05/16 04:55:49;;;;;;;1999.90;999.90;;;21.20;87.60;;;;;;5092263;28;20028;-69
2023/05/16 04:58:16;;;;;;;1999.90;999.90;;;21.20;87.70;;;;;;5095686;28;20072;-68
2023/05/16 05:00:43;;;;;;;1999.90;999.90;;;21.20;87.30;;;;;;5086969;28;20047;-69
2023/05/16 05:03:11;;;;;;;1999.90;999.90;;;21.10;87.70;;;;;;5076958;28;20028;-70
2023/05/16 05:05:38;;;;;;;1999.90;999.90;;;21.10;88.30;;;;;;5073494;28;20032;-69
2023/05/16 05:08:06;;;;;;;1999.90;999.90;;;21.10;87.70;;;;;;5092165;28;20027;-68
2023/05/16 05:10:33;;;;;;;1999.90;999.90;;;21.00;88.80;;;;;;5081976;28;20035;-69
2023/05/16 05:13:00;;;;;;;1999.90;999.90;;;21.00;88.50;;;;;;5085517;28;20041;-71
2023/05/16 05:15:28;;;;;;;1999.90;999.90;;;21.00;89.20;;;;;;5074580;28;20482;-70
2023/05/16 05:17:55;;;;;;;1999.90;999.90;;;21.00;88.20;;;;;;5092066;28;20011;-68
2023/05/16 05:20:23;;;;;;;1999.90;999.90;;;21.00;88.20;;;;;;5085722;28;20073;-69
2023/05/16 05:22:51;;;;;;;1999.90;999.90;;;21.00;87.70;;;;;;5077808;28;20139;-70
2023/05/16 05:25:18;;;;;;;1999.90;999.90;;;21.00;88.20;;;;;;5072163;28;20038;-69
2023/05/16 05:27:46;;;;;;;1999.90;999.90;;;20.90;88.40;;;;;;5093502;28;20115;-70
2023/05/16 05:30:14;;;;;;;1999.90;999.90;;;20.90;88.20;;;;;;5079597;28;20039;-70
2023/05/16 05:32:41;;;;;;;1999.90;999.90;;;21.00;88.50;;;;;;5086568;28;20742;-69
2023/05/16 05:35:09;;;;;;;1999.90;999.90;;;21.00;88.60;;;;;;5089047;28;20081;-70
2023/05/16 05:37:36;;;;;;;1999.90;999.90;;;21.00;88.80;;;;;;5075280;28;20043;-69
2023/05/16 05:40:04;;;;;;;1999.90;999.90;;;21.00;87.50;;;;;;5088843;28;20039;-70
2023/05/16 05:42:32;;;;;;;1999.90;999.90;;;21.00;88.40;;;;;;5079525;28;20020;-70
2023/05/16 05:45:00;;;;;;;1999.90;999.90;;;21.00;88.00;;;;;;5091108;28;20035;-69
2023/05/16 05:47:27;;;;;;;1999.90;999.90;;;21.00;88.80;;;;;;5086141;28;20438;-70
2023/05/16 05:49:58;;;;;;;1999.90;999.90;;;21.10;88.60;;;;;;5084695;28;20027;-70
2023/05/16 05:52:27;;;;;;;1999.90;999.90;;;21.20;88.30;;;;;;5092868;28;20048;-70
2023/05/16 05:54:55;;;;;;;1999.90;999.90;;;21.30;87.80;;;;;;5084381;28;20043;-69
2023/05/16 05:57:22;;;;;;;1999.90;999.90;;;21.30;87.90;;;;;;5087444;28;20027;-70
2023/05/16 05:59:49;;;;;;;1999.90;999.90;;;21.30;87.90;;;;;;5085511;28;20455;-71
2023/05/16 06:02:18;;;;;;;1999.90;999.90;;;21.30;88.60;;;;;;5080810;28;20032;-70
2023/05/16 06:04:45;;;;;;;1999.90;999.90;;;21.40;87.80;;;;;;5082889;28;20023;-72
2023/05/16 06:07:14;;;;;;;1999.90;999.90;;;21.40;88.30;;;;;;5072050;28;20035;-69
2023/05/16 06:09:42;;;;;;;1999.90;999.90;;;21.40;88.40;;;;;;5083011;28;20390;-70
2023/05/16 06:12:10;;;;;;;1999.90;999.90;;;21.50;89.60;;;;;;5083334;28;22191;-69
2023/05/16 06:14:37;;;;;;;1999.90;999.90;;;21.50;89.60;;;;;;5081682;28;20021;-70
2023/05/16 06:17:04;;;;;;;1999.90;999.90;;;21.60;89.50;;;;;;5078189;28;20114;-69
2023/05/16 06:19:32;;;;;;;1999.90;999.90;;;21.60;89.80;;;;;;5085296;28;20429;-69
2023/05/16 06:21:59;;;;;;;1999.90;999.90;;;21.50;90.00;;;;;;5088612;28;20020;-69
2023/05/16 06:24:28;;;;;;;1999.90;999.90;;;21.50;90.10;;;;;;5074989;28;20028;-71
2023/05/16 06:26:56;;;;;;;1999.90;999.90;;;21.40;90.00;;;;;;5082722;28;20031;-68
2023/05/16 06:29:23;;;;;;;1999.90;999.90;;;21.40;90.10;;;;;;5094809;28;20028;-69
2023/05/16 06:31:50;;;;;;;1999.90;999.90;;;21.30;90.50;;;;;;5080297;28;20028;-68
2023/05/16 06:34:17;;;;;;;1999.90;999.90;;;21.10;91.10;;;;;;5080058;28;20032;-69
2023/05/16 06:36:45;;;;;;;1999.90;999.90;;;20.90;91.60;;;;;;5069869;28;20568;-68
2023/05/16 06:39:12;;;;;;;1999.90;999.90;;;20.70;91.50;;;;;;5083077;28;20036;-69
2023/05/16 06:41:40;;;;;;;1999.90;999.90;;;20.50;91.80;;;;;;5078306;28;20051;-68
2023/05/16 06:44:07;;;;;;;1999.90;999.90;;;20.30;91.60;;;;;;5078669;28;20494;-69
2023/05/16 06:46:35;;;;;;;1999.90;999.90;;;20.10;91.60;;;;;;5079167;28;20048;-70
2023/05/16 06:49:02;;;;;;;1999.90;999.90;;;19.90;91.60;;;;;;5086404;28;20039;-70
2023/05/16 06:51:30;;;;;;;1999.90;999.90;;;19.70;91.90;;;;;;5079386;28;20059;-70
2023/05/16 06:53:57;;;;;;;1999.90;999.90;;;19.50;92.20;;;;;;5059050;28;20032;-71
2023/05/16 06:56:25;;;;;;;1999.90;999.90;;;19.20;92.20;;;;;;5085331;28;20032;-68
2023/05/16 06:58:52;;;;;;;1999.90;999.90;;;19.10;92.50;;;;;;5085857;28;20070;-68
2023/05/16 07:01:19;;;;;;;1999.90;999.90;;;18.90;92.70;;;;;;5084652;28;20035;-71
2023/05/16 07:03:47;;;;;;;1999.90;999.90;;;18.80;92.80;;;;;;5081085;28;20024;-70
2023/05/16 07:06:15;;;;;;;1999.90;999.90;;;18.70;92.90;;;;;;5074752;28;20692;-69
2023/05/16 07:08:43;;;;;;;1999.90;999.90;;;18.60;93.10;;;;;;5084280;28;20055;-69
2023/05/16 07:11:11;;;;;;;1999.90;999.90;;;18.40;93.20;;;;;;5079778;28;20024;-69
2023/05/16 07:13:42;;;;;;;1999.90;999.90;;;18.30;93.50;;;;;;5068677;28;20386;-69
2023/05/16 07:16:13;;;;;;;1999.90;999.90;;;18.20;93.60;;;;;;5083364;28;20027;-69
2023/05/16 07:18:40;;;;;;;1999.90;999.90;;;18.10;93.50;;;;;;5091532;28;20048;-70
2023/05/16 07:21:07;;;;;;;1999.90;999.90;;;18.10;93.80;;;;;;5067085;28;20039;-69
2023/05/16 07:23:35;;;;;;;1999.90;999.90;;;18.00;93.90;;;;;;5090292;28;20035;-69
2023/05/16 07:26:03;;;;;;;1999.90;999.90;;;17.90;94.20;;;;;;5093931;28;20031;-69
2023/05/16 07:28:33;;;;;;;1999.90;999.90;;;17.80;94.20;;;;;;5097682;28;20583;-69
2023/05/16 07:31:01;;;;;;;1999.90;999.90;;;17.70;94.30;;;;;;5088536;28;20697;-70
2023/05/16 07:33:35;;;;;;;1999.90;999.90;;;17.60;94.60;;;;;;5093793;28;20016;-68
2023/05/16 07:36:02;;;;;;;1999.90;999.90;;;17.50;95.00;;;;;;5085604;28;20023;-69
2023/05/16 07:38:30;;;;;;;1999.90;999.90;;;17.40;95.20;;;;;;5085811;28;20068;-70
2023/05/16 07:40:58;;;;;;;1999.90;999.90;;;17.30;95.50;;;;;;5075120;28;20529;-68
2023/05/16 07:43:25;;;;;;;1999.90;999.90;;;17.20;95.80;;;;;;5081474;28;20032;-70
2023/05/16 07:45:53;;;;;;;1999.90;999.90;;;17.10;95.90;;;;;;5083627;28;20032;-69
2023/05/16 07:48:20;;;;;;;1999.90;999.90;;;17.00;96.00;;;;;;5091780;28;20023;-69
2023/05/16 07:50:48;;;;;;;1999.90;999.90;;;16.90;96.30;;;;;;5081431;28;20064;-68
2023/05/16 07:53:15;;;;;;;1999.90;999.90;;;16.80;96.40;;;;;;5088948;28;20024;-69
2023/05/16 07:55:46;;;;;;;1999.90;999.90;;;16.70;96.80;;;;;;5081761;28;20021;-70
2023/05/16 07:58:14;;;;;;;1999.90;999.90;;;16.60;97.20;;;;;;5086780;28;20446;-69
2023/05/16 08:00:42;;;;;;;1999.90;999.90;;;16.60;97.50;;;;;;5085168;28;20415;-68
2023/05/16 08:03:09;;;;;;;1999.90;999.90;;;16.50;97.80;;;;;;5078212;28;20032;-70
2023/05/16 08:05:38;;;;;;;1999.90;999.90;;;16.40;98.00;;;;;;5084962;28;20044;-69
2023/05/16 08:08:05;;;;;;;1999.90;999.90;;;16.30;98.30;;;;;;5095039;28;20131;-70
2023/05/16 08:10:33;;;;;;;1999.90;999.90;;;16.20;98.50;;;;;;5074485;28;20031;-69
2023/05/16 08:13:00;;;;;;;1999.90;999.90;;;16.10;98.90;;;;;;5088244;28;20505;-69
2023/05/16 08:15:28;;;;;;;1999.90;999.90;;;16.10;99.00;;;;;;5080022;28;20032;-69
2023/05/16 08:17:58;;;;;;;1999.90;999.90;;;16.00;99.00;;;;;;5082707;28;20104;-68
2023/05/16 08:20:25;;;;;;;1999.90;999.90;;;15.90;99.20;;;;;;5087406;28;20035;-67
2023/05/16 08:22:53;;;;;;;1999.90;999.90;;;15.80;99.40;;;;;;5090689;28;20031;-68
2023/05/16 08:25:21;;;;;;;1999.90;999.90;;;15.70;99.80;;;;;;5086092;28;20020;-68
2023/05/16 08:27:50;;;;;;;1999.90;999.90;;;15.60;99.90;;;;;;5094743;28;20035;-69
2023/05/16 08:30:18;;;;;;;1999.90;999.90;;;15.60;99.90;;;;;;5086642;28;20756;-68
2023/05/16 08:32:45;;;;;;;1999.90;999.90;;;15.50;99.90;;;;;;5079308;28;20144;-70
2023/05/16 08:35:13;;;;;;;1999.90;999.90;;;15.50;99.90;;;;;;5083449;28;20043;-68
2023/05/16 08:37:46;;;;;;;1999.90;999.90;;;15.40;99.90;;;;;;5070351;28;20125;-68
2023/05/16 08:40:14;;;;;;;1999.90;999.90;;;15.30;99.90;;;;;;5086425;28;20028;-70
2023/05/16 08:42:41;;;;;;;1999.90;999.90;;;15.30;99.90;;;;;;5096748;28;20031;-69
2023/05/16 08:45:09;;;;;;;1999.90;999.90;;;15.30;99.90;;;;;;5083835;28;20127;-70
2023/05/16 08:47:42;;;;;;;1999.90;999.90;;;15.20;99.90;;;;;;5084667;28;20086;-69
2023/05/16 08:50:10;;;;;;;1999.90;999.90;;;15.20;99.90;;;;;;5069695;28;20028;-70
2023/05/16 08:52:39;;;;;;;1999.90;999.90;;;15.10;99.90;;;;;;5071549;28;20563;-68
2023/05/16 08:55:09;;;;;;;1999.90;999.90;;;15.10;99.90;;;;;;5089413;28;20035;-68
2023/05/16 08:57:37;;;;;;;1999.90;999.90;;;15.00;99.90;;;;;;5096760;28;20024;-69
2023/05/16 09:00:10;;;;;;;1999.90;999.90;;;15.00;99.90;;;;;;5087566;28;20413;-68
2023/05/16 09:02:45;;;;;;;1999.90;999.90;;;14.90;99.90;;;;;;5096367;28;20844;-69
2023/05/16 09:05:15;;;;;;;1999.90;999.90;;;14.90;99.90;;;;;;5086097;28;20028;-69
2023/05/16 09:07:46;;;;;;;1999.90;999.90;;;14.80;99.90;;;;;;5089194;28;20409;-69
2023/05/16 09:10:13;;;;;;;1999.90;999.90;;;14.80;99.90;;;;;;5080716;28;20028;-68
2023/05/16 09:12:42;;;;;;;1999.90;999.90;;;14.70;99.90;;;;;;5081448;28;20024;-70
2023/05/16 09:15:11;;;;;;;1999.90;999.90;;;14.70;99.90;;;;;;5076134;28;20848;-69
2023/05/16 09:18:06;;;;;;;1999.90;999.90;;;14.70;99.90;;;;;;5096969;28;20087;-70
2023/05/16 09:20:34;;;;;;;1999.90;999.90;;;14.60;99.90;;;;;;5070169;28;20040;-69
2023/05/16 09:23:02;;;;;;;1999.90;999.90;;;14.50;99.90;;;;;;5082920;28;20020;-68
2023/05/16 09:25:31;;;;;;;1999.90;999.90;;;14.40;99.90;;;;;;5083309;28;20055;-69
2023/05/16 09:28:00;;;;;;;1999.90;999.90;;;14.40;99.90;;;;;;5088921;28;20086;-69
2023/05/16 09:30:37;;;;;;;1999.90;999.90;;;14.20;99.90;;;;;;5089825;28;20172;-68
2023/05/16 09:33:07;;;;;;;1999.90;999.90;;;14.20;99.90;;;;;;5091355;28;20526;-70
2023/05/16 09:35:34;;;;;;;1999.90;999.90;;;14.10;99.90;;;;;;5091806;28;20066;-69
2023/05/16 09:38:02;;;;;;;1999.90;999.90;;;14.00;99.90;;;;;;5087941;28;20042;-70
2023/05/16 09:40:29;;;;;;;1999.90;999.90;;;13.90;99.90;;;;;;5092793;28;20029;-69
2023/05/16 09:43:05;;;;;;;1999.90;999.90;;;13.90;99.90;;;;;;5096658;28;20034;-69
2023/05/16 09:45:33;;;;;;;1999.90;999.90;;;13.80;99.90;;;;;;5088045;28;20083;-71
2023/05/16 09:48:13;;;;;;;1999.90;999.90;;;13.80;99.90;;;;;;5097517;28;20028;-72
2023/05/16 09:50:58;;;;;;;1999.90;999.90;;;13.70;99.90;;;;;;5092163;28;20483;-71
2023/05/16 09:53:28;;;;;;;1999.90;999.90;;;13.60;99.90;;;;;;5089786;28;20032;-70
2023/05/16 09:56:06;;;;;;;1999.90;999.90;;;13.60;99.90;;;;;;5087554;28;20111;-69
2023/05/16 09:58:35;;;;;;;1999.90;999.90;;;13.60;99.90;;;;;;5084822;28;20476;-68
2023/05/16 10:01:04;;;;;;;1999.90;999.90;;;13.50;99.90;;;;;;5083443;28;20387;-69
2023/05/16 10:03:41;;;;;;;1999.90;999.90;;;13.50;99.90;;;;;;5086566;28;20122;-71
2023/05/16 10:06:09;;;;;;;1999.90;999.90;;;13.40;99.90;;;;;;5090375;28;20040;-71
2023/05/16 10:08:37;;;;;;;1999.90;999.90;;;13.40;99.90;;;;;;5090482;28;20020;-70
2023/05/16 10:11:06;;;;;;;1999.90;999.90;;;13.40;99.90;;;;;;5083849;28;20466;-70
2023/05/16 10:13:35;;;;;;;1999.90;999.90;;;13.30;99.90;;;;;;5086384;28;20478;-69
2023/05/16 10:16:11;;;;;;;1999.90;999.90;;;13.30;99.90;;;;;;5087699;28;20111;-68
2023/05/16 10:18:40;;;;;;;1999.90;999.90;;;13.30;99.90;;;;;;5094449;28;20050;-69
2023/05/16 10:21:19;;;;;;;1999.90;999.90;;;13.30;99.90;;;;;;5079205;28;20241;-71
2023/05/16 10:23:51;;;;;;;1999.90;999.90;;;13.30;99.90;;;;;;5091893;28;20039;-70
2023/05/16 10:26:20;;;;;;;1999.90;999.90;;;13.30;99.90;;;;;;5079495;28;20036;-70
2023/05/16 10:28:48;;;;;;;1999.90;999.90;;;13.30;99.90;;;;;;5093215;28;20820;-71
2023/05/16 10:31:16;;;;;;;1999.90;999.90;;;13.40;99.90;;;;;;5084317;28;20111;-68
2023/05/16 10:33:44;;;;;;;1999.90;999.90;;;13.40;99.90;;;;;;5086207;28;20059;-70
2023/05/16 10:36:12;;;;;;;1999.90;999.90;;;13.40;99.90;;;;;;5085566;28;20032;-69
2023/05/16 10:38:40;;;;;;;1999.90;999.90;;;13.50;99.90;;;;;;5091822;28;20024;-70
2023/05/16 10:41:09;;;;;;;1999.90;999.90;;;13.50;99.90;;;;;;5084947;28;20036;-70
2023/05/16 10:43:36;;;;;;;1999.90;999.90;;;13.70;99.90;;;;;;5093049;28;20056;-70
2023/05/16 10:46:07;;;;;;;1999.90;999.90;;;13.80;99.90;;;;;;5090442;28;20386;-69
2023/05/16 10:48:39;;;;;;;1999.90;999.90;;;13.90;99.90;;;;;;5099149;28;20473;-70
2023/05/16 10:51:32;;;;;;;1999.90;999.90;;;13.90;99.90;;;;;;5069179;28;20655;-69
2023/05/16 10:54:09;;;;;;;1999.90;999.90;;;14.00;99.90;;;;;;5080951;28;20020;-69
2023/05/16 10:56:37;;;;;;;1999.90;999.90;;;14.10;99.90;;;;;;5084984;28;20359;-69
2023/05/16 10:59:21;;;;;;;1999.90;999.90;;;14.10;99.90;;;;;;5091914;28;20039;-70
2023/05/16 11:01:54;;;;;;;1999.90;999.90;;;14.10;99.90;;;;;;5078704;28;20031;-69
2023/05/16 11:04:22;;;;;;;1999.90;999.90;;;14.10;99.90;;;;;;5093750;28;20023;-71
2023/05/16 11:06:55;;;;;;;1999.90;999.90;;;14.10;99.90;;;;;;5093548;28;20855;-69
2023/05/16 11:09:28;;;;;;;1999.90;999.90;;;14.10;99.90;;;;;;5098242;28;20373;-70
2023/05/16 11:12:05;;;;;;;1999.90;999.90;;;14.10;99.90;;;;;;5091399;28;20474;-72
2023/05/16 11:14:32;;;;;;;1999.90;999.90;;;14.10;99.90;;;;;;5097340;28;20062;-72
2023/05/16 11:17:03;;;;;;;1999.90;999.90;;;14.10;99.90;;;;;;5091243;28;20436;-69
2023/05/16 11:19:44;;;;;;;1999.90;999.90;;;14.10;99.90;;;;;;5102741;28;20177;-70
2023/05/16 11:22:20;;;;;;;1999.90;999.90;;;14.00;99.90;;;;;;5095229;28;20068;-70
2023/05/16 11:24:59;;;;;;;1999.90;999.90;;;13.90;99.90;;;;;;5098550;28;20072;-70
2023/05/16 11:27:28;;;;;;;1999.90;999.90;;;13.90;99.90;;;;;;5096200;28;20043;-70
2023/05/16 11:30:20;;;;;;;1999.90;999.90;;;13.80;99.90;;;;;;5089231;28;20028;-70
2023/05/16 11:32:49;;;;;;;1999.90;999.90;;;13.70;99.90;;;;;;5079514;28;20453;-70
2023/05/16 11:35:17;;;;;;;1999.90;999.90;;;13.60;99.90;;;;;;5091357;28;20036;-71
2023/05/16 11:37:47;;;;;;;1999.90;999.90;;;13.60;99.90;;;;;;5096372;28;20082;-71
2023/05/16 11:40:15;;;;;;;1999.90;999.90;;;13.50;99.90;;;;;;5090999;28;20032;-70
2023/05/16 11:42:46;;;;;;;1999.90;999.90;;;13.50;99.90;;;;;;5080567;28;20416;-70
2023/05/16 11:45:19;;;;;;;1999.90;999.90;;;13.40;99.90;;;;;;5087983;28;20036;-71
2023/05/16 11:47:48;;;;;;;1999.90;999.90;;;13.30;99.90;;;;;;5099234;28;20047;-71
2023/05/16 11:50:18;;;;;;;1999.90;999.90;;;13.30;99.90;;;;;;5096689;28;20650;-70
2023/05/16 11:52:49;;;;;;;1999.90;999.90;;;13.20;99.90;;;;;;5097967;28;20031;-70
2023/05/16 11:55:20;;;;;;;1999.90;999.90;;;13.10;99.90;;;;;;5074451;28;20029;-70
2023/05/16 11:57:49;;;;;;;1999.90;999.90;;;13.10;99.90;;;;;;5092407;28;20473;-71
2023/05/16 12:00:18;;;;;;;1999.90;999.90;;;13.10;99.90;;;;;;5090084;28;20174;-70
2023/05/16 12:02:47;;;;;;;1999.90;999.90;;;13.00;99.90;;;;;;5093179;28;20020;-70
2023/05/16 12:05:19;;;;;;;1999.90;999.90;;;13.00;99.90;;;;;;5054331;28;20032;-70
2023/05/16 12:07:47;;;;;;;1999.90;999.90;;;12.90;99.90;;;;;;5092045;28;20028;-71
2023/05/16 12:10:16;;;;;;;1999.90;999.90;;;12.90;99.90;;;;;;5098004;28;20032;-70